sensor_id;sensor_type;location;lat;lon;timestamp;temperature;humidity
3308;DHT22;1666;48.898;9.182;2023-04-03T00:00:36;4.10;1.00
3308;DHT22;1666;48.898;9.182;2023-04-03T00:03:06;4.00;1.00
3308;DHT22;1666;48.898;9.182;2023-04-03T00:05:37;4.00;1.00
3308;DHT22;1666;48.898;9.182;2023-04-03T00:08:07;4.10;1.00
3308;DHT22;1666;48.898;9.182;2023-04-03T00:10:40;4.10;1.00
3308;DHT22;1666;48.898;9.182;2023-04-03T00:13:10;4.00;1.00
3308;DHT22;1666;48.898;9.182;2023-04-03T00:15:41;4.00;1.00
3308;DHT22;1666;48.898;9.182;2023-04-03T00:18:11;4.00;1.00
3308;DHT22;1666;48.898;9.182;2023-04-03T00:20:41;4.00;1.00
3308;DHT22;1666;48.898;9.182;2023-04-03T00:23:11;4.10;1.00
3308;DHT22;1666;48.898;9.182;2023-04-03T00:25:43;4.00;1.00
3308;DHT22;1666;48.898;9.182;2023-04-03T00:28:13;4.00;1.00
3308;DHT22;1666;48.898;9.182;2023-04-03T00:30:43;4.00;1.00
3308;DHT22;1666;48.898;9.182;2023-04-03T00:33:13;4.00;1.00
3308;DHT22;1666;48.898;9.182;2023-04-03T00:35:44;3.90;1.00
3308;DHT22;1666;48.898;9.182;2023-04-03T00:38:14;3.90;1.00
3308;DHT22;1666;48.898;9.182;2023-04-03T00:40:48;3.90;1.00
3308;DHT22;1666;48.898;9.182;2023-04-03T00:43:21;3.90;1.00
3308;DHT22;1666;48.898;9.182;2023-04-03T00:45:54;3.90;1.00
3308;DHT22;1666;48.898;9.182;2023-04-03T00:48:27;3.80;1.00
3308;DHT22;1666;48.898;9.182;2023-04-03T00:50:59;3.90;1.00
3308;DHT22;1666;48.898;9.182;2023-04-03T00:53:32;3.90;1.00
3308;DHT22;1666;48.898;9.182;2023-04-03T00:56:08;3.90;1.00
3308;DHT22;1666;48.898;9.182;2023-04-03T00:58:43;3.80;1.00
3308;DHT22;1666;48.898;9.182;2023-04-03T01:01:20;3.90;1.00
3308;DHT22;1666;48.898;9.182;2023-04-03T01:03:51;3.90;1.00
3308;DHT22;1666;48.898;9.182;2023-04-03T01:06:25;3.90;1.00
3308;DHT22;1666;48.898;9.182;2023-04-03T01:08:58;3.80;1.00
3308;DHT22;1666;48.898;9.182;2023-04-03T01:11:31;3.80;1.00
3308;DHT22;1666;48.898;9.182;2023-04-03T01:14:01;3.80;1.00
3308;DHT22;1666;48.898;9.182;2023-04-03T01:16:33;3.80;1.00
3308;DHT22;1666;48.898;9.182;2023-04-03T01:19:03;3.80;1.00
3308;DHT22;1666;48.898;9.182;2023-04-03T01:24:38;3.70;1.00
3308;DHT22;1666;48.898;9.182;2023-04-03T01:27:11;3.70;1.00
3308;DHT22;1666;48.898;9.182;2023-04-03T01:29:42;3.80;1.00
3308;DHT22;1666;48.898;9.182;2023-04-03T01:32:14;3.70;1.00
3308;DHT22;1666;48.898;9.182;2023-04-03T01:34:44;3.70;1.00
3308;DHT22;1666;48.898;9.182;2023-04-03T01:37:14;3.70;1.00
3308;DHT22;1666;48.898;9.182;2023-04-03T01:39:44;3.70;1.00
3308;DHT22;1666;48.898;9.182;2023-04-03T01:42:14;3.70;1.00
3308;DHT22;1666;48.898;9.182;2023-04-03T01:44:44;3.70;1.00
3308;DHT22;1666;48.898;9.182;2023-04-03T01:47:17;3.60;1.00
3308;DHT22;1666;48.898;9.182;2023-04-03T01:49:46;3.60;1.00
3308;DHT22;1666;48.898;9.182;2023-04-03T01:52:16;3.60;1.00
3308;DHT22;1666;48.898;9.182;2023-04-03T01:54:46;3.60;1.00
3308;DHT22;1666;48.898;9.182;2023-04-03T01:57:17;3.60;1.00
3308;DHT22;1666;48.898;9.182;2023-04-03T01:59:47;3.60;1.00
3308;DHT22;1666;48.898;9.182;2023-04-03T02:02:20;3.60;1.00
3308;DHT22;1666;48.898;9.182;2023-04-03T02:04:50;3.60;1.00
3308;DHT22;1666;48.898;9.182;2023-04-03T02:07:21;3.60;1.00
3308;DHT22;1666;48.898;9.182;2023-04-03T02:09:51;3.60;1.00
3308;DHT22;1666;48.898;9.182;2023-04-03T02:12:21;3.60;1.00
3308;DHT22;1666;48.898;9.182;2023-04-03T02:14:52;3.60;1.00
3308;DHT22;1666;48.898;9.182;2023-04-03T02:17:25;3.50;1.00
3308;DHT22;1666;48.898;9.182;2023-04-03T02:19:54;3.60;1.00
3308;DHT22;1666;48.898;9.182;2023-04-03T02:22:24;3.60;1.00
3308;DHT22;1666;48.898;9.182;2023-04-03T02:24:54;3.50;1.00
3308;DHT22;1666;48.898;9.182;2023-04-03T02:27:24;3.50;1.00
3308;DHT22;1666;48.898;9.182;2023-04-03T02:29:54;3.50;1.00
3308;DHT22;1666;48.898;9.182;2023-04-03T02:32:26;3.60;1.00
3308;DHT22;1666;48.898;9.182;2023-04-03T02:34:57;3.60;1.00
3308;DHT22;1666;48.898;9.182;2023-04-03T02:37:26;3.60;1.00
3308;DHT22;1666;48.898;9.182;2023-04-03T02:39:56;3.60;1.00
3308;DHT22;1666;48.898;9.182;2023-04-03T02:42:26;3.60;1.00
3308;DHT22;1666;48.898;9.182;2023-04-03T02:44:56;3.70;1.00
3308;DHT22;1666;48.898;9.182;2023-04-03T02:47:30;3.70;1.00
3308;DHT22;1666;48.898;9.182;2023-04-03T02:49:59;3.70;1.00
3308;DHT22;1666;48.898;9.182;2023-04-03T02:52:29;3.70;1.00
3308;DHT22;1666;48.898;9.182;2023-04-03T02:54:59;3.70;1.00
3308;DHT22;1666;48.898;9.182;2023-04-03T02:57:29;3.70;1.00
3308;DHT22;1666;48.898;9.182;2023-04-03T02:59:59;3.60;1.00
3308;DHT22;1666;48.898;9.182;2023-04-03T03:02:32;3.60;1.00
3308;DHT22;1666;48.898;9.182;2023-04-03T03:05:02;3.60;1.00
3308;DHT22;1666;48.898;9.182;2023-04-03T03:07:33;3.60;1.00
3308;DHT22;1666;48.898;9.182;2023-04-03T03:10:04;3.60;1.00
3308;DHT22;1666;48.898;9.182;2023-04-03T03:12:34;3.60;1.00
3308;DHT22;1666;48.898;9.182;2023-04-03T03:15:05;3.60;1.00
3308;DHT22;1666;48.898;9.182;2023-04-03T03:17:37;3.60;1.00
3308;DHT22;1666;48.898;9.182;2023-04-03T03:20:08;3.60;1.00
3308;DHT22;1666;48.898;9.182;2023-04-03T03:22:38;3.60;1.00
3308;DHT22;1666;48.898;9.182;2023-04-03T03:25:09;3.70;1.00
3308;DHT22;1666;48.898;9.182;2023-04-03T03:27:39;3.60;1.00
3308;DHT22;1666;48.898;9.182;2023-04-03T03:30:09;3.60;1.00
3308;DHT22;1666;48.898;9.182;2023-04-03T03:32:42;3.60;1.00
3308;DHT22;1666;48.898;9.182;2023-04-03T03:35:12;3.60;1.00
3308;DHT22;1666;48.898;9.182;2023-04-03T03:37:42;3.70;1.00
3308;DHT22;1666;48.898;9.182;2023-04-03T03:40:13;3.70;1.00
3308;DHT22;1666;48.898;9.182;2023-04-03T03:42:44;3.70;1.00
3308;DHT22;1666;48.898;9.182;2023-04-03T03:45:14;3.70;1.00
3308;DHT22;1666;48.898;9.182;2023-04-03T03:47:46;3.80;1.00
3308;DHT22;1666;48.898;9.182;2023-04-03T03:50:16;3.70;1.00
3308;DHT22;1666;48.898;9.182;2023-04-03T03:52:46;3.80;1.00
3308;DHT22;1666;48.898;9.182;2023-04-03T03:55:16;3.80;1.00
3308;DHT22;1666;48.898;9.182;2023-04-03T03:57:46;3.80;1.00
3308;DHT22;1666;48.898;9.182;2023-04-03T04:00:16;3.80;1.00
3308;DHT22;1666;48.898;9.182;2023-04-03T04:02:49;3.80;1.00
3308;DHT22;1666;48.898;9.182;2023-04-03T04:05:19;3.80;1.00
3308;DHT22;1666;48.898;9.182;2023-04-03T04:07:49;3.80;1.00
3308;DHT22;1666;48.898;9.182;2023-04-03T04:10:19;3.80;1.00
3308;DHT22;1666;48.898;9.182;2023-04-03T04:12:49;3.80;1.00
3308;DHT22;1666;48.898;9.182;2023-04-03T04:15:19;3.80;1.00
3308;DHT22;1666;48.898;9.182;2023-04-03T04:17:52;3.80;1.00
3308;DHT22;1666;48.898;9.182;2023-04-03T04:20:23;3.80;1.00
3308;DHT22;1666;48.898;9.182;2023-04-03T04:22:52;3.80;1.00
3308;DHT22;1666;48.898;9.182;2023-04-03T04:25:22;3.80;1.00
3308;DHT22;1666;48.898;9.182;2023-04-03T04:27:52;3.80;1.00
3308;DHT22;1666;48.898;9.182;2023-04-03T04:30:22;3.80;1.00
3308;DHT22;1666;48.898;9.182;2023-04-03T04:32:55;3.80;1.00
3308;DHT22;1666;48.898;9.182;2023-04-03T04:35:25;3.90;1.00
3308;DHT22;1666;48.898;9.182;2023-04-03T04:37:55;3.90;1.00
3308;DHT22;1666;48.898;9.182;2023-04-03T04:40:25;3.90;1.00
3308;DHT22;1666;48.898;9.182;2023-04-03T04:42:55;3.90;1.00
3308;DHT22;1666;48.898;9.182;2023-04-03T04:45:25;3.90;1.00
3308;DHT22;1666;48.898;9.182;2023-04-03T04:47:57;3.90;1.00
3308;DHT22;1666;48.898;9.182;2023-04-03T04:50:27;3.80;1.00
3308;DHT22;1666;48.898;9.182;2023-04-03T04:52:57;3.80;1.00
3308;DHT22;1666;48.898;9.182;2023-04-03T04:55:27;3.80;1.00
3308;DHT22;1666;48.898;9.182;2023-04-03T04:57:57;3.80;1.00
3308;DHT22;1666;48.898;9.182;2023-04-03T05:00:27;3.80;1.00
3308;DHT22;1666;48.898;9.182;2023-04-03T05:03:00;3.70;1.00
3308;DHT22;1666;48.898;9.182;2023-04-03T05:05:29;3.70;1.00
3308;DHT22;1666;48.898;9.182;2023-04-03T05:07:59;3.60;1.00
3308;DHT22;1666;48.898;9.182;2023-04-03T05:10:29;3.50;1.00
3308;DHT22;1666;48.898;9.182;2023-04-03T05:13:00;3.50;1.00
3308;DHT22;1666;48.898;9.182;2023-04-03T05:15:30;3.50;1.00
3308;DHT22;1666;48.898;9.182;2023-04-03T05:18:02;3.50;1.00
3308;DHT22;1666;48.898;9.182;2023-04-03T05:20:33;3.40;1.00
3308;DHT22;1666;48.898;9.182;2023-04-03T05:23:04;3.40;1.00
3308;DHT22;1666;48.898;9.182;2023-04-03T05:25:34;3.50;1.00
3308;DHT22;1666;48.898;9.182;2023-04-03T05:28:04;3.40;1.00
3308;DHT22;1666;48.898;9.182;2023-04-03T05:30:34;3.40;1.00
3308;DHT22;1666;48.898;9.182;2023-04-03T05:33:07;3.40;1.00
3308;DHT22;1666;48.898;9.182;2023-04-03T05:35:37;3.30;1.00
3308;DHT22;1666;48.898;9.182;2023-04-03T05:38:08;3.30;1.00
3308;DHT22;1666;48.898;9.182;2023-04-03T05:40:39;3.30;1.00
3308;DHT22;1666;48.898;9.182;2023-04-03T05:43:09;3.30;1.00
3308;DHT22;1666;48.898;9.182;2023-04-03T05:45:38;3.20;1.00
3308;DHT22;1666;48.898;9.182;2023-04-03T05:48:14;3.30;1.00
3308;DHT22;1666;48.898;9.182;2023-04-03T05:50:44;3.40;1.00
3308;DHT22;1666;48.898;9.182;2023-04-03T05:53:18;3.40;1.00
3308;DHT22;1666;48.898;9.182;2023-04-03T05:55:50;3.40;1.00
3308;DHT22;1666;48.898;9.182;2023-04-03T05:58:20;3.40;1.00
3308;DHT22;1666;48.898;9.182;2023-04-03T06:00:50;3.40;1.00
3308;DHT22;1666;48.898;9.182;2023-04-03T06:03:23;3.40;1.00
3308;DHT22;1666;48.898;9.182;2023-04-03T06:05:53;3.40;1.00
3308;DHT22;1666;48.898;9.182;2023-04-03T06:08:23;3.50;1.00
3308;DHT22;1666;48.898;9.182;2023-04-03T06:10:53;3.50;1.00
3308;DHT22;1666;48.898;9.182;2023-04-03T06:13:23;3.50;1.00
3308;DHT22;1666;48.898;9.182;2023-04-03T06:15:53;3.60;1.00
3308;DHT22;1666;48.898;9.182;2023-04-03T06:18:25;3.60;1.00
3308;DHT22;1666;48.898;9.182;2023-04-03T06:20:55;3.60;1.00
3308;DHT22;1666;48.898;9.182;2023-04-03T06:23:25;3.60;1.00
3308;DHT22;1666;48.898;9.182;2023-04-03T06:25:55;3.60;1.00
3308;DHT22;1666;48.898;9.182;2023-04-03T06:28:25;3.60;1.00
3308;DHT22;1666;48.898;9.182;2023-04-03T06:30:55;3.60;1.00
3308;DHT22;1666;48.898;9.182;2023-04-03T06:33:27;3.60;1.00
3308;DHT22;1666;48.898;9.182;2023-04-03T06:35:58;3.80;1.00
3308;DHT22;1666;48.898;9.182;2023-04-03T06:38:28;3.80;1.00
3308;DHT22;1666;48.898;9.182;2023-04-03T06:40:58;3.80;1.00
3308;DHT22;1666;48.898;9.182;2023-04-03T06:43:28;4.00;1.00
3308;DHT22;1666;48.898;9.182;2023-04-03T06:46:00;4.00;1.00
3308;DHT22;1666;48.898;9.182;2023-04-03T06:48:33;4.00;1.00
3308;DHT22;1666;48.898;9.182;2023-04-03T06:51:03;3.80;1.00
3308;DHT22;1666;48.898;9.182;2023-04-03T06:53:33;3.90;1.00
3308;DHT22;1666;48.898;9.182;2023-04-03T06:56:04;3.80;1.00
3308;DHT22;1666;48.898;9.182;2023-04-03T06:58:34;3.80;1.00
3308;DHT22;1666;48.898;9.182;2023-04-03T07:01:04;3.80;1.00
3308;DHT22;1666;48.898;9.182;2023-04-03T07:03:37;3.90;1.00
3308;DHT22;1666;48.898;9.182;2023-04-03T07:06:07;3.90;1.00
3308;DHT22;1666;48.898;9.182;2023-04-03T07:08:40;4.00;1.00
3308;DHT22;1666;48.898;9.182;2023-04-03T07:11:11;4.00;1.00
3308;DHT22;1666;48.898;9.182;2023-04-03T07:13:41;4.20;1.00
3308;DHT22;1666;48.898;9.182;2023-04-03T07:16:11;4.10;1.00
3308;DHT22;1666;48.898;9.182;2023-04-03T07:18:44;4.20;1.00
3308;DHT22;1666;48.898;9.182;2023-04-03T07:21:14;4.30;1.00
3308;DHT22;1666;48.898;9.182;2023-04-03T07:23:44;4.20;1.00
3308;DHT22;1666;48.898;9.182;2023-04-03T07:26:15;4.30;1.00
3308;DHT22;1666;48.898;9.182;2023-04-03T07:28:45;4.40;1.00
3308;DHT22;1666;48.898;9.182;2023-04-03T07:31:16;4.50;1.00
3308;DHT22;1666;48.898;9.182;2023-04-03T07:33:49;4.40;1.00
3308;DHT22;1666;48.898;9.182;2023-04-03T07:36:21;4.60;1.00
3308;DHT22;1666;48.898;9.182;2023-04-03T07:38:51;4.70;1.00
3308;DHT22;1666;48.898;9.182;2023-04-03T07:41:21;4.80;1.00
3308;DHT22;1666;48.898;9.182;2023-04-03T07:43:51;4.60;1.00
3308;DHT22;1666;48.898;9.182;2023-04-03T07:46:21;4.70;1.00
3308;DHT22;1666;48.898;9.182;2023-04-03T07:48:55;4.80;1.00
3308;DHT22;1666;48.898;9.182;2023-04-03T07:51:25;4.80;1.00
3308;DHT22;1666;48.898;9.182;2023-04-03T07:53:56;5.00;1.00
3308;DHT22;1666;48.898;9.182;2023-04-03T07:56:26;5.00;1.00
3308;DHT22;1666;48.898;9.182;2023-04-03T07:58:56;4.70;1.00
3308;DHT22;1666;48.898;9.182;2023-04-03T08:01:26;4.80;1.00
3308;DHT22;1666;48.898;9.182;2023-04-03T08:04:01;4.90;1.00
3308;DHT22;1666;48.898;9.182;2023-04-03T08:06:32;5.10;1.00
3308;DHT22;1666;48.898;9.182;2023-04-03T08:09:13;5.10;1.00
3308;DHT22;1666;48.898;9.182;2023-04-03T08:11:44;5.00;1.00
3308;DHT22;1666;48.898;9.182;2023-04-03T08:14:14;5.20;1.00
3308;DHT22;1666;48.898;9.182;2023-04-03T08:16:46;5.20;1.00
3308;DHT22;1666;48.898;9.182;2023-04-03T08:19:19;5.30;1.00
3308;DHT22;1666;48.898;9.182;2023-04-03T08:21:53;5.60;1.00
3308;DHT22;1666;48.898;9.182;2023-04-03T08:24:23;5.60;1.00
3308;DHT22;1666;48.898;9.182;2023-04-03T08:26:54;5.90;1.00
3308;DHT22;1666;48.898;9.182;2023-04-03T08:29:24;5.60;1.00
3308;DHT22;1666;48.898;9.182;2023-04-03T08:31:54;5.60;1.00
3308;DHT22;1666;48.898;9.182;2023-04-03T08:34:26;5.80;1.00
3308;DHT22;1666;48.898;9.182;2023-04-03T08:36:56;5.70;1.00
3308;DHT22;1666;48.898;9.182;2023-04-03T08:39:26;5.60;1.00
3308;DHT22;1666;48.898;9.182;2023-04-03T08:41:58;6.00;1.00
3308;DHT22;1666;48.898;9.182;2023-04-03T08:44:38;5.90;1.00
3308;DHT22;1666;48.898;9.182;2023-04-03T08:47:14;6.10;1.00
3308;DHT22;1666;48.898;9.182;2023-04-03T08:49:52;6.00;1.00
3308;DHT22;1666;48.898;9.182;2023-04-03T08:52:31;6.00;1.00
3308;DHT22;1666;48.898;9.182;2023-04-03T08:55:04;6.40;1.00
3308;DHT22;1666;48.898;9.182;2023-04-03T08:57:36;5.90;1.00
3308;DHT22;1666;48.898;9.182;2023-04-03T09:00:17;6.00;1.00
3308;DHT22;1666;48.898;9.182;2023-04-03T09:02:49;6.10;1.00
3308;DHT22;1666;48.898;9.182;2023-04-03T09:05:33;6.00;1.00
3308;DHT22;1666;48.898;9.182;2023-04-03T09:08:14;6.20;1.00
3308;DHT22;1666;48.898;9.182;2023-04-03T09:10:44;6.20;1.00
3308;DHT22;1666;48.898;9.182;2023-04-03T09:13:23;6.30;1.00
3308;DHT22;1666;48.898;9.182;2023-04-03T09:15:56;6.20;1.00
3308;DHT22;1666;48.898;9.182;2023-04-03T09:18:30;6.10;1.00
3308;DHT22;1666;48.898;9.182;2023-04-03T09:21:11;6.50;1.00
3308;DHT22;1666;48.898;9.182;2023-04-03T09:23:45;6.50;1.00
3308;DHT22;1666;48.898;9.182;2023-04-03T09:26:19;6.50;1.00
3308;DHT22;1666;48.898;9.182;2023-04-03T09:28:49;6.40;1.00
3308;DHT22;1666;48.898;9.182;2023-04-03T09:31:22;6.60;1.00
3308;DHT22;1666;48.898;9.182;2023-04-03T09:33:59;6.90;1.00
3308;DHT22;1666;48.898;9.182;2023-04-03T09:36:45;6.80;1.00
3308;DHT22;1666;48.898;9.182;2023-04-03T09:39:17;6.70;1.00
3308;DHT22;1666;48.898;9.182;2023-04-03T09:41:59;6.80;1.00
3308;DHT22;1666;48.898;9.182;2023-04-03T09:44:32;6.70;1.00
3308;DHT22;1666;48.898;9.182;2023-04-03T09:47:18;7.10;1.00
3308;DHT22;1666;48.898;9.182;2023-04-03T09:49:48;6.90;1.00
3308;DHT22;1666;48.898;9.182;2023-04-03T09:52:25;6.60;1.00
3308;DHT22;1666;48.898;9.182;2023-04-03T09:55:06;6.80;1.00
3308;DHT22;1666;48.898;9.182;2023-04-03T09:57:37;6.50;1.00
3308;DHT22;1666;48.898;9.182;2023-04-03T10:00:20;6.40;1.00
3308;DHT22;1666;48.898;9.182;2023-04-03T10:02:53;6.40;1.00
3308;DHT22;1666;48.898;9.182;2023-04-03T10:05:31;6.60;1.00
3308;DHT22;1666;48.898;9.182;2023-04-03T10:08:19;6.60;1.00
3308;DHT22;1666;48.898;9.182;2023-04-03T10:11:07;6.40;1.00
3308;DHT22;1666;48.898;9.182;2023-04-03T10:13:50;6.80;1.00
3308;DHT22;1666;48.898;9.182;2023-04-03T10:16:25;6.70;1.00
3308;DHT22;1666;48.898;9.182;2023-04-03T10:21:59;6.60;1.00
3308;DHT22;1666;48.898;9.182;2023-04-03T10:24:40;6.50;1.00
3308;DHT22;1666;48.898;9.182;2023-04-03T10:27:18;6.70;1.00
3308;DHT22;1666;48.898;9.182;2023-04-03T10:29:57;7.30;1.00
3308;DHT22;1666;48.898;9.182;2023-04-03T10:32:41;7.20;1.00
3308;DHT22;1666;48.898;9.182;2023-04-03T10:35:18;7.30;1.00
3308;DHT22;1666;48.898;9.182;2023-04-03T10:37:58;7.10;1.00
3308;DHT22;1666;48.898;9.182;2023-04-03T10:40:39;7.10;1.00
3308;DHT22;1666;48.898;9.182;2023-04-03T10:43:17;7.20;1.00
3308;DHT22;1666;48.898;9.182;2023-04-03T10:45:56;6.90;1.00
3308;DHT22;1666;48.898;9.182;2023-04-03T10:48:48;6.80;1.00
3308;DHT22;1666;48.898;9.182;2023-04-03T10:51:24;7.00;1.00
3308;DHT22;1666;48.898;9.182;2023-04-03T10:53:57;7.10;1.00
3308;DHT22;1666;48.898;9.182;2023-04-03T10:56:37;7.10;1.00
3308;DHT22;1666;48.898;9.182;2023-04-03T10:59:18;6.90;1.00
3308;DHT22;1666;48.898;9.182;2023-04-03T11:01:53;6.60;1.00
3308;DHT22;1666;48.898;9.182;2023-04-03T11:04:27;6.80;1.00
3308;DHT22;1666;48.898;9.182;2023-04-03T11:07:02;6.80;1.00
3308;DHT22;1666;48.898;9.182;2023-04-03T11:09:35;6.80;1.00
3308;DHT22;1666;48.898;9.182;2023-04-03T11:12:14;6.60;1.00
3308;DHT22;1666;48.898;9.182;2023-04-03T11:14:47;6.80;1.00
3308;DHT22;1666;48.898;9.182;2023-04-03T11:17:26;6.90;1.00
3308;DHT22;1666;48.898;9.182;2023-04-03T11:20:01;6.90;1.00
3308;DHT22;1666;48.898;9.182;2023-04-03T11:22:36;6.70;1.00
3308;DHT22;1666;48.898;9.182;2023-04-03T11:25:18;6.60;1.00
3308;DHT22;1666;48.898;9.182;2023-04-03T11:27:57;6.20;1.00
3308;DHT22;1666;48.898;9.182;2023-04-03T11:30:33;6.40;1.00
3308;DHT22;1666;48.898;9.182;2023-04-03T11:33:24;6.40;1.00
3308;DHT22;1666;48.898;9.182;2023-04-03T11:35:59;6.60;1.00
3308;DHT22;1666;48.898;9.182;2023-04-03T11:38:46;6.60;1.00
3308;DHT22;1666;48.898;9.182;2023-04-03T11:41:26;6.70;1.00
3308;DHT22;1666;48.898;9.182;2023-04-03T11:44:00;6.70;1.00
3308;DHT22;1666;48.898;9.182;2023-04-03T11:46:52;6.70;1.00
3308;DHT22;1666;48.898;9.182;2023-04-03T11:52:58;6.40;1.00
3308;DHT22;1666;48.898;9.182;2023-04-03T11:55:52;6.20;1.00
3308;DHT22;1666;48.898;9.182;2023-04-03T11:58:23;6.40;1.00
3308;DHT22;1666;48.898;9.182;2023-04-03T12:01:08;6.70;1.00
3308;DHT22;1666;48.898;9.182;2023-04-03T12:03:58;6.60;1.00
3308;DHT22;1666;48.898;9.182;2023-04-03T12:09:56;6.80;1.00
3308;DHT22;1666;48.898;9.182;2023-04-03T12:12:35;6.70;1.00
3308;DHT22;1666;48.898;9.182;2023-04-03T12:15:24;6.90;1.00
3308;DHT22;1666;48.898;9.182;2023-04-03T12:17:56;7.00;1.00
3308;DHT22;1666;48.898;9.182;2023-04-03T12:20:55;6.90;1.00
3308;DHT22;1666;48.898;9.182;2023-04-03T12:23:27;7.00;1.00
3308;DHT22;1666;48.898;9.182;2023-04-03T12:26:18;6.90;1.00
3308;DHT22;1666;48.898;9.182;2023-04-03T12:28:51;6.80;1.00
3308;DHT22;1666;48.898;9.182;2023-04-03T12:31:25;6.90;1.00
3308;DHT22;1666;48.898;9.182;2023-04-03T12:34:23;7.10;1.00
3308;DHT22;1666;48.898;9.182;2023-04-03T12:37:00;7.20;1.00
3308;DHT22;1666;48.898;9.182;2023-04-03T12:39:47;7.10;1.00
3308;DHT22;1666;48.898;9.182;2023-04-03T12:45:16;7.20;1.00
3308;DHT22;1666;48.898;9.182;2023-04-03T12:47:49;7.50;1.00
3308;DHT22;1666;48.898;9.182;2023-04-03T12:50:24;7.10;1.00
3308;DHT22;1666;48.898;9.182;2023-04-03T12:52:59;7.10;1.00
3308;DHT22;1666;48.898;9.182;2023-04-03T12:55:31;7.20;1.00
3308;DHT22;1666;48.898;9.182;2023-04-03T12:58:14;7.10;1.00
3308;DHT22;1666;48.898;9.182;2023-04-03T13:00:44;7.10;1.00
3308;DHT22;1666;48.898;9.182;2023-04-03T13:03:23;7.30;1.00
3308;DHT22;1666;48.898;9.182;2023-04-03T13:05:59;7.30;1.00
3308;DHT22;1666;48.898;9.182;2023-04-03T13:08:30;7.20;1.00
3308;DHT22;1666;48.898;9.182;2023-04-03T13:11:02;7.30;1.00
3308;DHT22;1666;48.898;9.182;2023-04-03T13:13:33;7.30;1.00
3308;DHT22;1666;48.898;9.182;2023-04-03T13:16:08;7.40;1.00
3308;DHT22;1666;48.898;9.182;2023-04-03T13:18:40;7.50;1.00
3308;DHT22;1666;48.898;9.182;2023-04-03T13:21:18;7.70;1.00
3308;DHT22;1666;48.898;9.182;2023-04-03T13:23:52;7.70;1.00
3308;DHT22;1666;48.898;9.182;2023-04-03T13:26:38;7.40;1.00
3308;DHT22;1666;48.898;9.182;2023-04-03T13:29:22;7.50;1.00
3308;DHT22;1666;48.898;9.182;2023-04-03T13:31:59;7.40;1.00
3308;DHT22;1666;48.898;9.182;2023-04-03T13:34:36;7.30;1.00
3308;DHT22;1666;48.898;9.182;2023-04-03T13:37:19;7.40;1.00
3308;DHT22;1666;48.898;9.182;2023-04-03T13:40:08;7.40;1.00
3308;DHT22;1666;48.898;9.182;2023-04-03T13:42:41;7.50;1.00
3308;DHT22;1666;48.898;9.182;2023-04-03T13:45:18;7.70;1.00
3308;DHT22;1666;48.898;9.182;2023-04-03T13:47:52;7.70;1.00
3308;DHT22;1666;48.898;9.182;2023-04-03T13:50:24;7.60;1.00
3308;DHT22;1666;48.898;9.182;2023-04-03T13:53:01;7.60;1.00
3308;DHT22;1666;48.898;9.182;2023-04-03T13:55:54;7.70;1.00
3308;DHT22;1666;48.898;9.182;2023-04-03T13:58:28;7.40;1.00
3308;DHT22;1666;48.898;9.182;2023-04-03T14:01:06;7.30;1.00
3308;DHT22;1666;48.898;9.182;2023-04-03T14:03:42;7.50;1.00
3308;DHT22;1666;48.898;9.182;2023-04-03T14:06:13;7.50;1.00
3308;DHT22;1666;48.898;9.182;2023-04-03T14:08:45;7.50;1.00
3308;DHT22;1666;48.898;9.182;2023-04-03T14:11:18;7.50;1.00
3308;DHT22;1666;48.898;9.182;2023-04-03T14:13:51;7.60;1.00
3308;DHT22;1666;48.898;9.182;2023-04-03T14:16:26;7.50;1.00
3308;DHT22;1666;48.898;9.182;2023-04-03T14:18:57;7.20;1.00
3308;DHT22;1666;48.898;9.182;2023-04-03T14:21:27;7.30;1.00
3308;DHT22;1666;48.898;9.182;2023-04-03T14:23:57;7.40;1.00
3308;DHT22;1666;48.898;9.182;2023-04-03T14:26:28;7.30;1.00
3308;DHT22;1666;48.898;9.182;2023-04-03T14:29:01;7.60;1.00
3308;DHT22;1666;48.898;9.182;2023-04-03T14:31:32;7.60;1.00
3308;DHT22;1666;48.898;9.182;2023-04-03T14:34:02;7.40;1.00
3308;DHT22;1666;48.898;9.182;2023-04-03T14:36:32;7.20;1.00
3308;DHT22;1666;48.898;9.182;2023-04-03T14:39:03;7.30;1.00
3308;DHT22;1666;48.898;9.182;2023-04-03T14:41:34;7.50;1.00
3308;DHT22;1666;48.898;9.182;2023-04-03T14:44:07;7.40;1.00
3308;DHT22;1666;48.898;9.182;2023-04-03T14:46:39;7.50;1.00
3308;DHT22;1666;48.898;9.182;2023-04-03T14:49:16;7.80;1.00
3308;DHT22;1666;48.898;9.182;2023-04-03T14:51:47;7.70;1.00
3308;DHT22;1666;48.898;9.182;2023-04-03T14:54:19;7.30;1.00
3308;DHT22;1666;48.898;9.182;2023-04-03T14:56:53;7.20;1.00
3308;DHT22;1666;48.898;9.182;2023-04-03T14:59:26;7.20;1.00
3308;DHT22;1666;48.898;9.182;2023-04-03T15:01:56;7.20;1.00
3308;DHT22;1666;48.898;9.182;2023-04-03T15:04:26;7.20;1.00
3308;DHT22;1666;48.898;9.182;2023-04-03T15:06:57;7.20;1.00
3308;DHT22;1666;48.898;9.182;2023-04-03T15:09:27;7.50;1.00
3308;DHT22;1666;48.898;9.182;2023-04-03T15:11:57;7.50;1.00
3308;DHT22;1666;48.898;9.182;2023-04-03T15:14:29;7.60;1.00
3308;DHT22;1666;48.898;9.182;2023-04-03T15:17:18;7.60;1.00
3308;DHT22;1666;48.898;9.182;2023-04-03T15:19:49;7.50;1.00
3308;DHT22;1666;48.898;9.182;2023-04-03T15:22:19;7.40;1.00
3308;DHT22;1666;48.898;9.182;2023-04-03T15:24:49;7.20;1.00
3308;DHT22;1666;48.898;9.182;2023-04-03T15:27:19;7.20;1.00
3308;DHT22;1666;48.898;9.182;2023-04-03T15:29:52;6.90;1.00
3308;DHT22;1666;48.898;9.182;2023-04-03T15:32:22;6.70;1.00
3308;DHT22;1666;48.898;9.182;2023-04-03T15:34:53;6.80;1.00
3308;DHT22;1666;48.898;9.182;2023-04-03T15:37:23;6.90;1.00
3308;DHT22;1666;48.898;9.182;2023-04-03T15:39:53;7.10;1.00
3308;DHT22;1666;48.898;9.182;2023-04-03T15:42:22;7.20;1.00
3308;DHT22;1666;48.898;9.182;2023-04-03T15:44:55;7.30;1.00
3308;DHT22;1666;48.898;9.182;2023-04-03T15:47:25;7.40;1.00
3308;DHT22;1666;48.898;9.182;2023-04-03T15:49:56;7.50;1.00
3308;DHT22;1666;48.898;9.182;2023-04-03T15:52:26;7.70;1.00
3308;DHT22;1666;48.898;9.182;2023-04-03T15:54:56;7.60;1.00
3308;DHT22;1666;48.898;9.182;2023-04-03T15:57:27;7.40;1.00
3308;DHT22;1666;48.898;9.182;2023-04-03T16:00:20;7.20;1.00
3308;DHT22;1666;48.898;9.182;2023-04-03T16:02:53;7.00;1.00
3308;DHT22;1666;48.898;9.182;2023-04-03T16:05:24;7.00;1.00
3308;DHT22;1666;48.898;9.182;2023-04-03T16:07:54;7.00;1.00
3308;DHT22;1666;48.898;9.182;2023-04-03T16:10:24;6.90;1.00
3308;DHT22;1666;48.898;9.182;2023-04-03T16:12:54;6.70;1.00
3308;DHT22;1666;48.898;9.182;2023-04-03T16:15:28;6.90;1.00
3308;DHT22;1666;48.898;9.182;2023-04-03T16:17:59;6.90;1.00
3308;DHT22;1666;48.898;9.182;2023-04-03T16:20:30;6.90;1.00
3308;DHT22;1666;48.898;9.182;2023-04-03T16:23:01;7.10;1.00
3308;DHT22;1666;48.898;9.182;2023-04-03T16:25:31;7.20;1.00
3308;DHT22;1666;48.898;9.182;2023-04-03T16:28:01;7.10;1.00
3308;DHT22;1666;48.898;9.182;2023-04-03T16:30:33;7.10;1.00
3308;DHT22;1666;48.898;9.182;2023-04-03T16:33:03;7.00;1.00
3308;DHT22;1666;48.898;9.182;2023-04-03T16:35:33;6.70;1.00
3308;DHT22;1666;48.898;9.182;2023-04-03T16:38:04;6.70;1.00
3308;DHT22;1666;48.898;9.182;2023-04-03T16:40:34;6.70;1.00
3308;DHT22;1666;48.898;9.182;2023-04-03T16:43:04;6.70;1.00
3308;DHT22;1666;48.898;9.182;2023-04-03T16:45:36;6.60;1.00
3308;DHT22;1666;48.898;9.182;2023-04-03T16:48:07;6.60;1.00
3308;DHT22;1666;48.898;9.182;2023-04-03T16:50:37;6.60;1.00
3308;DHT22;1666;48.898;9.182;2023-04-03T16:53:07;6.60;1.00
3308;DHT22;1666;48.898;9.182;2023-04-03T16:55:37;6.60;1.00
3308;DHT22;1666;48.898;9.182;2023-04-03T16:58:07;6.60;1.00
3308;DHT22;1666;48.898;9.182;2023-04-03T17:00:40;6.70;1.00
3308;DHT22;1666;48.898;9.182;2023-04-03T17:03:10;6.70;1.00
3308;DHT22;1666;48.898;9.182;2023-04-03T17:05:40;6.90;1.00
3308;DHT22;1666;48.898;9.182;2023-04-03T17:08:10;6.80;1.00
3308;DHT22;1666;48.898;9.182;2023-04-03T17:10:40;6.80;1.00
3308;DHT22;1666;48.898;9.182;2023-04-03T17:13:10;6.80;1.00
3308;DHT22;1666;48.898;9.182;2023-04-03T17:15:43;6.70;1.00
3308;DHT22;1666;48.898;9.182;2023-04-03T17:18:14;6.60;1.00
3308;DHT22;1666;48.898;9.182;2023-04-03T17:20:44;6.50;1.00
3308;DHT22;1666;48.898;9.182;2023-04-03T17:23:14;6.50;1.00
3308;DHT22;1666;48.898;9.182;2023-04-03T17:25:44;6.50;1.00
3308;DHT22;1666;48.898;9.182;2023-04-03T17:28:14;6.40;1.00